createdAt,value
2019-05-03T00:00:17.404Z,11.74
2019-05-03T00:03:03.323Z,11.74
2019-05-03T00:05:32.511Z,11.65
2019-05-03T00:08:02.165Z,11.63
2019-05-03T00:10:28.391Z,11.63
2019-05-03T00:12:54.358Z,11.65
2019-05-03T00:15:25.094Z,11.60
2019-05-03T00:17:52.677Z,11.62
2019-05-03T00:20:18.586Z,11.62
2019-05-03T00:22:44.613Z,11.66
2019-05-03T00:25:12.716Z,11.62
2019-05-03T00:27:38.202Z,11.60
2019-05-03T00:30:06.106Z,11.60
2019-05-03T00:32:32.202Z,11.61
2019-05-03T00:35:03.007Z,11.55
2019-05-03T00:37:33.787Z,11.50
2019-05-03T00:40:04.282Z,11.62
2019-05-03T00:42:31.766Z,11.61
2019-05-03T00:44:57.712Z,11.61
2019-05-03T00:47:23.642Z,11.58
2019-05-03T00:49:49.474Z,11.59
2019-05-03T00:52:15.343Z,11.45
2019-05-03T00:54:42.353Z,11.43
2019-05-03T00:57:08.227Z,11.50
2019-05-03T00:59:34.178Z,11.55
2019-05-03T01:02:02.533Z,11.39
2019-05-03T01:04:28.003Z,11.50
2019-05-03T01:06:53.827Z,11.49
2019-05-03T01:09:22.538Z,11.58
2019-05-03T01:11:48.547Z,11.62
2019-05-03T01:14:14.603Z,11.62
2019-05-03T01:16:42.661Z,11.68
2019-05-03T01:19:08.419Z,11.56
2019-05-03T01:21:34.340Z,11.56
2019-05-03T01:24:01.687Z,11.35
2019-05-03T01:26:27.643Z,11.36
2019-05-03T01:28:53.470Z,11.32
2019-05-03T01:31:19.432Z,11.40
2019-05-03T01:33:45.345Z,11.31
2019-05-03T01:36:12.040Z,11.20
2019-05-03T01:38:38.027Z,11.24
2019-05-03T01:41:03.989Z,11.24
2019-05-03T01:43:31.663Z,11.26
2019-05-03T01:45:57.660Z,11.23
2019-05-03T01:48:41.641Z,11.21
2019-05-03T01:51:12.189Z,11.20
2019-05-03T01:53:41.575Z,11.20
2019-05-03T01:56:07.391Z,10.83
2019-05-03T01:58:33.439Z,10.83
2019-05-03T02:01:17.799Z,11.04
2019-05-03T02:03:54.466Z,11.00
2019-05-03T02:06:22.314Z,10.92
2019-05-03T02:08:48.388Z,10.62
2019-05-03T02:11:14.337Z,10.62
2019-05-03T02:13:40.167Z,10.84
2019-05-03T02:16:06.103Z,10.85
2019-05-03T02:18:32.075Z,10.85
2019-05-03T02:20:58.111Z,10.64
2019-05-03T02:23:24.060Z,10.55
2019-05-03T02:25:58.305Z,10.62
2019-05-03T02:28:17.753Z,10.41
2019-05-03T02:30:44.305Z,10.41
2019-05-03T02:33:13.069Z,10.26
2019-05-03T02:35:38.283Z,10.26
2019-05-03T02:38:04.335Z,10.06
2019-05-03T02:40:30.179Z,10.05
2019-05-03T02:43:06.737Z,9.89
2019-05-03T02:45:35.214Z,9.90
2019-05-03T02:48:05.846Z,9.89
2019-05-03T02:50:30.831Z,9.86
2019-05-03T02:52:56.658Z,9.82
2019-05-03T02:55:25.726Z,9.74
2019-05-03T02:57:50.543Z,9.88
2019-05-03T03:00:20.205Z,9.88
2019-05-03T03:02:46.146Z,9.90
2019-05-03T03:05:12.219Z,9.90
2019-05-03T03:07:39.054Z,9.87
2019-05-03T03:10:05.730Z,9.82
2019-05-03T03:12:31.973Z,9.81
2019-05-03T03:14:59.821Z,9.91
2019-05-03T03:17:25.819Z,9.91
2019-05-03T03:19:55.246Z,9.87
2019-05-03T03:22:21.608Z,9.89
2019-05-03T03:24:48.734Z,9.90
2019-05-03T03:27:18.191Z,9.90
2019-05-03T03:29:47.841Z,9.84
2019-05-03T03:32:19.253Z,9.88
2019-05-03T03:35:04.501Z,9.88
2019-05-03T03:37:28.991Z,9.96
2019-05-03T03:39:56.045Z,9.96
2019-05-03T03:42:25.008Z,9.95
2019-05-03T03:44:50.165Z,9.95
2019-05-03T03:47:16.889Z,9.81
2019-05-03T03:49:46.290Z,9.56
2019-05-03T03:52:12.634Z,9.45
2019-05-03T03:54:40.475Z,9.49
2019-05-03T03:57:08.486Z,9.38
2019-05-03T03:59:36.309Z,9.51
2019-05-03T04:02:02.656Z,9.53
2019-05-03T04:04:28.743Z,9.53
2019-05-03T04:06:58.500Z,9.37
2019-05-03T04:09:25.307Z,9.29
2019-05-03T04:11:50.443Z,9.33
2019-05-03T04:14:20.984Z,9.33
2019-05-03T04:16:48.827Z,9.16
2019-05-03T04:19:25.624Z,9.16
2019-05-03T04:21:51.695Z,9.55
2019-05-03T04:24:17.676Z,9.55
2019-05-03T04:26:45.373Z,9.54
2019-05-03T04:29:11.425Z,9.48
2019-05-03T04:31:37.365Z,9.48
2019-05-03T04:34:05.054Z,9.50
2019-05-03T04:36:31.205Z,9.46
2019-05-03T04:38:57.075Z,9.46
2019-05-03T04:41:23.009Z,9.62
2019-05-03T04:43:48.895Z,9.62
2019-05-03T04:46:19.470Z,9.65
2019-05-03T04:48:45.346Z,9.75
2019-05-03T04:51:11.195Z,9.75
2019-05-03T04:53:39.152Z,9.64
2019-05-03T04:56:05.890Z,9.60
2019-05-03T04:58:31.959Z,9.60
2019-05-03T05:00:58.111Z,9.60
2019-05-03T05:03:26.431Z,9.63
2019-05-03T05:05:51.758Z,9.63
2019-05-03T05:08:17.620Z,9.61
2019-05-03T05:10:45.524Z,9.61
2019-05-03T05:13:11.330Z,9.26
2019-05-03T05:15:37.254Z,9.26
2019-05-03T05:18:10.944Z,9.51
2019-05-03T05:20:56.634Z,9.37
2019-05-03T05:23:22.622Z,9.37
2019-05-03T05:25:55.022Z,9.03
2019-05-03T05:28:25.810Z,9.10
2019-05-03T05:30:51.761Z,9.15
2019-05-03T05:33:20.594Z,9.15
2019-05-03T05:35:47.435Z,8.99
2019-05-03T05:38:15.023Z,9.34
2019-05-03T05:40:41.066Z,9.34
2019-05-03T05:43:07.016Z,9.11
2019-05-03T05:45:34.847Z,9.13
2019-05-03T05:48:02.651Z,9.34
2019-05-03T05:50:30.542Z,9.34
2019-05-03T05:52:56.491Z,9.53
2019-05-03T05:55:40.850Z,9.53
2019-05-03T05:58:17.518Z,9.61
2019-05-03T06:00:57.204Z,9.78
2019-05-03T06:03:25.136Z,9.84
2019-05-03T06:05:51.021Z,9.80
2019-05-03T06:08:21.876Z,9.54
2019-05-03T06:11:06.237Z,9.56
2019-05-03T06:13:36.780Z,9.64
2019-05-03T06:16:24.425Z,9.67
2019-05-03T06:18:54.278Z,9.76
2019-05-03T06:21:25.081Z,9.73
2019-05-03T06:23:53.145Z,9.59
2019-05-03T06:26:35.974Z,9.50
2019-05-03T06:29:04.629Z,9.50
2019-05-03T06:31:48.891Z,9.48
2019-05-03T06:34:15.087Z,9.58
2019-05-03T06:36:44.264Z,9.75
2019-05-03T06:39:10.258Z,9.75
2019-05-03T06:41:36.271Z,9.69
2019-05-03T06:44:04.257Z,9.75
2019-05-03T06:46:45.472Z,9.90
2019-05-03T06:49:12.764Z,9.50
2019-05-03T06:51:45.676Z,9.61
2019-05-03T06:54:08.774Z,9.61
2019-05-03T06:56:35.042Z,9.53
2019-05-03T06:59:01.087Z,9.60
2019-05-03T07:01:28.806Z,9.47
2019-05-03T07:03:56.584Z,9.86
2019-05-03T07:06:37.406Z,9.65
2019-05-03T07:08:56.965Z,9.76
2019-05-03T07:11:24.723Z,9.85
2019-05-03T07:13:50.751Z,9.59
2019-05-03T07:16:16.606Z,9.59
2019-05-03T07:18:42.557Z,9.50
2019-05-03T07:21:08.475Z,9.48
2019-05-03T07:23:34.973Z,9.38
2019-05-03T07:26:01.082Z,9.42
2019-05-03T07:28:27.015Z,9.43
2019-05-03T07:30:54.439Z,9.48
2019-05-03T07:33:31.312Z,9.45
2019-05-03T07:35:57.280Z,9.38
2019-05-03T07:38:24.816Z,9.38
2019-05-03T07:40:50.983Z,9.53
2019-05-03T07:43:18.891Z,9.51
2019-05-03T07:45:44.722Z,9.05
2019-05-03T07:48:10.534Z,8.99
2019-05-03T07:50:36.467Z,8.87
2019-05-03T07:53:04.488Z,8.83
2019-05-03T07:55:48.471Z,8.95
2019-05-03T07:58:16.321Z,9.38
2019-05-03T08:00:44.422Z,9.38
2019-05-03T08:03:10.021Z,9.47
2019-05-03T08:05:35.850Z,9.60
2019-05-03T08:08:01.743Z,9.77
2019-05-03T08:10:27.601Z,9.29
2019-05-03T08:12:54.440Z,9.33
2019-05-03T08:15:20.478Z,9.35
2019-05-03T08:17:46.440Z,9.37
2019-05-03T08:20:14.365Z,9.54
2019-05-03T08:22:40.453Z,9.86
2019-05-03T08:25:06.390Z,9.86
2019-05-03T08:27:32.312Z,10.12
2019-05-03T08:29:58.293Z,9.92
2019-05-03T08:32:37.842Z,10.24
2019-05-03T08:35:08.854Z,10.70
2019-05-03T08:37:36.705Z,10.70
2019-05-03T08:40:05.237Z,10.78
2019-05-03T08:42:31.094Z,10.78
2019-05-03T08:44:57.142Z,10.65
2019-05-03T08:47:24.792Z,10.44
2019-05-03T08:49:50.930Z,10.54
2019-05-03T08:52:16.970Z,10.56
2019-05-03T08:54:44.837Z,10.48
2019-05-03T08:57:10.859Z,10.48
2019-05-03T08:59:36.913Z,10.52
2019-05-03T09:02:13.644Z,10.76
2019-05-03T09:04:37.377Z,10.61
2019-05-03T09:06:58.923Z,10.61
2019-05-03T09:09:34.726Z,10.56
2019-05-03T09:12:00.487Z,10.95
2019-05-03T09:14:38.740Z,10.99
2019-05-03T09:16:55.545Z,11.61
2019-05-03T09:19:21.639Z,11.61
2019-05-03T09:21:47.595Z,11.06
2019-05-03T09:24:15.192Z,11.06
2019-05-03T09:26:41.240Z,10.79
2019-05-03T09:29:07.193Z,10.79
2019-05-03T09:31:35.130Z,10.58
2019-05-03T09:34:01.062Z,10.25
2019-05-03T09:36:26.926Z,10.86
2019-05-03T09:38:54.705Z,10.86
2019-05-03T09:41:20.508Z,10.89
2019-05-03T09:43:46.543Z,10.89
2019-05-03T09:46:14.563Z,11.48
2019-05-03T09:48:40.654Z,11.48
2019-05-03T09:51:06.590Z,11.69
2019-05-03T09:53:40.469Z,11.73
2019-05-03T09:56:06.421Z,12.09
2019-05-03T09:58:35.270Z,12.09
2019-05-03T10:01:00.230Z,12.41
2019-05-03T10:03:26.181Z,12.41
2019-05-03T10:05:52.041Z,12.39
2019-05-03T10:08:18.101Z,11.83
2019-05-03T10:11:02.598Z,11.61
2019-05-03T10:13:28.668Z,12.12
2019-05-03T10:15:55.001Z,12.12
2019-05-03T10:18:21.059Z,11.68
2019-05-03T10:20:47.011Z,11.68
2019-05-03T10:23:26.952Z,12.16
2019-05-03T10:25:55.111Z,12.29
2019-05-03T10:28:20.875Z,12.29
2019-05-03T10:30:46.796Z,12.12
2019-05-03T10:33:15.540Z,12.28
2019-05-03T10:35:41.491Z,10.94
2019-05-03T10:38:07.431Z,10.94
2019-05-03T10:40:35.569Z,10.70
2019-05-03T10:48:35.936Z,10.80
2019-05-03T10:51:01.982Z,10.70
2019-05-03T10:53:32.261Z,10.54
2019-05-03T10:56:22.866Z,10.96
2019-05-03T10:58:47.575Z,11.02
2019-05-03T11:01:15.159Z,11.02
2019-05-03T11:03:41.066Z,11.37
2019-05-03T11:06:07.136Z,11.37
2019-05-03T11:08:32.969Z,11.61
2019-05-03T11:11:01.395Z,12.29
2019-05-03T11:13:27.427Z,12.88
2019-05-03T11:15:54.917Z,11.89
2019-05-03T11:18:20.823Z,11.89
2019-05-03T11:20:46.663Z,12.74
2019-05-03T11:23:14.485Z,12.74
2019-05-03T11:25:40.347Z,12.75
2019-05-03T11:28:11.429Z,12.75
2019-05-03T11:30:37.363Z,12.66
2019-05-03T11:33:05.190Z,12.66
2019-05-03T11:35:38.728Z,11.52
2019-05-03T11:38:18.411Z,11.52
2019-05-03T11:40:45.502Z,11.65
2019-05-03T11:43:11.803Z,11.62
2019-05-03T11:45:37.684Z,11.80
2019-05-03T11:48:03.730Z,11.80
2019-05-03T11:50:29.758Z,11.78
2019-05-03T11:52:55.720Z,12.09
2019-05-03T11:55:21.655Z,12.22
2019-05-03T11:57:47.598Z,12.60
2019-05-03T12:00:15.659Z,12.58
2019-05-03T12:02:44.790Z,11.75
2019-05-03T12:05:15.647Z,11.75
2019-05-03T12:07:41.650Z,11.58
2019-05-03T12:10:17.477Z,11.44
2019-05-03T12:12:37.444Z,11.65
2019-05-03T12:15:04.783Z,12.70
2019-05-03T12:17:34.595Z,12.20
2019-05-03T12:20:01.967Z,12.20
2019-05-03T12:22:28.892Z,11.96
2019-05-03T12:24:55.713Z,12.08
2019-05-03T12:27:21.999Z,12.16
2019-05-03T12:29:48.050Z,12.16
2019-05-03T12:32:14.388Z,11.63
2019-05-03T12:34:40.384Z,11.64
2019-05-03T12:37:06.226Z,11.64
2019-05-03T12:39:32.184Z,11.81
2019-05-03T12:41:58.108Z,12.14
2019-05-03T12:44:24.722Z,12.20
2019-05-03T12:46:50.761Z,12.32
2019-05-03T12:49:16.577Z,12.32
2019-05-03T12:51:42.560Z,12.06
2019-05-03T12:54:08.489Z,12.50
2019-05-03T12:56:35.849Z,12.41
2019-05-03T12:59:09.451Z,12.91
2019-05-03T13:01:55.778Z,13.13
2019-05-03T13:04:24.811Z,12.71
2019-05-03T13:07:01.523Z,13.36
2019-05-03T13:09:27.470Z,13.32
2019-05-03T13:11:58.754Z,12.96
2019-05-03T13:14:24.880Z,12.57
2019-05-03T13:16:50.676Z,12.80
2019-05-03T13:19:16.518Z,12.61
2019-05-03T13:21:42.463Z,12.56
2019-05-03T13:24:21.862Z,11.93
2019-05-03T13:26:36.351Z,12.34
2019-05-03T13:29:02.419Z,12.53
2019-05-03T13:31:28.389Z,12.66
2019-05-03T13:33:54.960Z,12.66
2019-05-03T13:36:20.975Z,12.47
2019-05-03T13:38:47.012Z,12.45
2019-05-03T13:41:12.954Z,12.64
2019-05-03T13:43:38.810Z,11.74
2019-05-03T13:46:05.236Z,11.86
2019-05-03T13:48:42.603Z,12.16
2019-05-03T13:50:59.007Z,11.92
2019-05-03T13:53:25.425Z,11.70
2019-05-03T13:55:51.389Z,11.58
2019-05-03T13:58:17.259Z,11.67
2019-05-03T14:00:45.154Z,11.29
2019-05-03T14:03:10.957Z,11.55
2019-05-03T14:05:36.801Z,11.46
2019-05-03T14:08:05.116Z,11.11
2019-05-03T14:10:30.581Z,11.19
2019-05-03T14:12:56.510Z,11.51
2019-05-03T14:15:22.560Z,11.33
2019-05-03T14:17:48.428Z,11.29
2019-05-03T14:20:16.994Z,11.36
2019-05-03T14:22:44.838Z,11.47
2019-05-03T14:25:10.710Z,11.69
2019-05-03T14:27:36.680Z,11.69
2019-05-03T14:30:06.213Z,11.80
2019-05-03T14:32:32.050Z,11.90
2019-05-03T14:34:57.902Z,11.76
2019-05-03T14:37:24.158Z,11.45
2019-05-03T14:39:50.020Z,11.45
2019-05-03T14:42:15.862Z,11.50
2019-05-03T14:44:41.735Z,11.79
2019-05-03T14:47:07.577Z,11.44
2019-05-03T14:49:34.595Z,11.61
2019-05-03T14:52:00.610Z,11.60
2019-05-03T14:54:28.377Z,11.60
2019-05-03T14:57:02.045Z,11.30
2019-05-03T14:59:29.797Z,11.30
2019-05-03T15:02:00.321Z,11.19
2019-05-03T15:04:26.186Z,11.19
2019-05-03T15:06:52.190Z,11.10
2019-05-03T15:09:19.152Z,10.79
2019-05-03T15:11:45.339Z,10.19
2019-05-03T15:14:11.245Z,9.40
2019-05-03T15:16:37.134Z,9.03
2019-05-03T15:19:05.305Z,9.28
2019-05-03T15:21:30.953Z,9.13
2019-05-03T15:23:56.803Z,9.13
2019-05-03T15:26:24.699Z,9.38
2019-05-03T15:28:50.417Z,9.41
2019-05-03T15:31:16.377Z,9.45
2019-05-03T15:33:42.290Z,9.47
2019-05-03T15:36:10.050Z,9.59
2019-05-03T15:38:36.030Z,9.69
2019-05-03T15:41:01.886Z,9.69
2019-05-03T15:43:29.637Z,9.97
2019-05-03T15:46:00.069Z,9.98
2019-05-03T15:48:27.862Z,10.08
2019-05-03T15:50:55.356Z,10.10
2019-05-03T15:53:21.488Z,10.00
2019-05-03T15:55:47.534Z,9.98
2019-05-03T15:58:15.239Z,10.29
2019-05-03T16:00:41.383Z,10.29
2019-05-03T16:03:08.940Z,10.16
2019-05-03T16:05:35.654Z,10.25
2019-05-03T16:08:01.536Z,10.11
2019-05-03T16:10:27.482Z,10.11
2019-05-03T16:12:54.571Z,10.10
2019-05-03T16:15:20.680Z,10.03
2019-05-03T16:17:46.550Z,10.02
2019-05-03T16:20:14.372Z,10.14
2019-05-03T16:22:40.330Z,10.45
2019-05-03T16:25:07.074Z,10.57
2019-05-03T16:27:34.827Z,11.00
2019-05-03T16:30:04.429Z,10.88
2019-05-03T16:32:30.423Z,10.52
2019-05-03T16:34:56.254Z,10.76
2019-05-03T16:37:22.171Z,10.22
2019-05-03T16:39:49.964Z,10.48
2019-05-03T16:42:17.731Z,10.70
2019-05-03T16:44:44.410Z,11.20
2019-05-03T16:47:10.354Z,10.96
2019-05-03T16:49:36.221Z,10.96
2019-05-03T16:52:02.366Z,10.89
2019-05-03T16:54:28.234Z,10.87
2019-05-03T16:56:54.983Z,11.02
2019-05-03T16:59:20.895Z,10.63
2019-05-03T17:01:46.963Z,10.63
2019-05-03T17:04:31.121Z,10.64
2019-05-03T17:07:15.321Z,10.57
2019-05-03T17:09:45.900Z,10.93
2019-05-03T17:12:15.172Z,10.80
2019-05-03T17:14:41.224Z,10.80
2019-05-03T17:17:07.384Z,10.81
2019-05-03T17:19:35.020Z,10.51
2019-05-03T17:22:01.185Z,10.51
2019-05-03T17:24:27.309Z,10.92
2019-05-03T17:26:55.045Z,10.82
2019-05-03T17:29:21.197Z,10.82
2019-05-03T17:31:47.043Z,10.74
2019-05-03T17:34:14.503Z,10.66
2019-05-03T17:36:40.440Z,10.55
2019-05-03T17:39:08.394Z,10.55
2019-05-03T17:41:36.253Z,10.62
2019-05-03T17:44:09.855Z,10.62
2019-05-03T17:46:35.713Z,10.61
2019-05-03T17:49:01.583Z,10.48
2019-05-03T17:51:38.344Z,10.60
2019-05-03T17:54:22.698Z,10.54
2019-05-03T17:56:55.016Z,10.57
2019-05-03T17:59:21.708Z,10.57
2019-05-03T18:02:06.867Z,10.16
2019-05-03T18:04:35.247Z,10.16
2019-05-03T18:07:06.115Z,10.08
2019-05-03T18:09:34.567Z,9.97
2019-05-03T18:12:04.899Z,9.88
2019-05-03T18:14:30.852Z,9.88
2019-05-03T18:16:56.826Z,9.79
2019-05-03T18:19:22.695Z,9.74
2019-05-03T18:21:48.644Z,9.69
2019-05-03T18:24:15.352Z,10.18
2019-05-03T18:26:41.363Z,10.53
2019-05-03T18:29:07.228Z,10.53
2019-05-03T18:31:33.163Z,10.48
2019-05-03T18:33:59.018Z,10.54
2019-05-03T18:36:25.261Z,10.48
2019-05-03T18:38:51.223Z,10.20
2019-05-03T18:41:17.057Z,10.05
2019-05-03T18:43:50.960Z,9.48
2019-05-03T18:46:21.768Z,9.60
2019-05-03T18:48:47.731Z,9.60
2019-05-03T18:51:14.763Z,9.82
2019-05-03T18:53:40.757Z,9.68
2019-05-03T18:56:06.633Z,9.48
2019-05-03T18:58:32.478Z,9.21
2019-05-03T19:00:58.328Z,8.65
2019-05-03T19:03:25.159Z,8.71
2019-05-03T19:05:55.899Z,8.89
2019-05-03T19:08:24.789Z,8.95
2019-05-03T19:10:52.744Z,8.95
2019-05-03T19:13:23.244Z,8.73
2019-05-03T19:15:49.391Z,8.73
2019-05-03T19:18:20.146Z,9.07
2019-05-03T19:20:46.016Z,9.07
2019-05-03T19:23:11.897Z,9.05
2019-05-03T19:25:46.864Z,9.22
2019-05-03T19:28:07.940Z,9.33
2019-05-03T19:30:35.439Z,9.16
2019-05-03T19:33:01.428Z,8.98
2019-05-03T19:35:27.770Z,8.98
2019-05-03T19:37:55.423Z,9.13
2019-05-03T19:40:21.475Z,9.09
2019-05-03T19:42:47.348Z,8.97
2019-05-03T19:45:15.229Z,8.49
2019-05-03T19:47:41.171Z,8.33
2019-05-03T19:50:07.250Z,8.33
2019-05-03T19:52:51.448Z,7.64
2019-05-03T19:55:17.322Z,7.64
2019-05-03T19:57:44.986Z,7.90
2019-05-03T20:00:11.663Z,7.83
2019-05-03T20:02:45.529Z,7.50
2019-05-03T20:05:25.347Z,7.26
2019-05-03T20:07:54.275Z,7.62
2019-05-03T20:10:21.041Z,7.62
2019-05-03T20:12:46.910Z,7.73
2019-05-03T20:15:14.532Z,7.76
2019-05-03T20:17:40.445Z,7.76
2019-05-03T20:20:06.514Z,7.89
2019-05-03T20:22:32.455Z,8.08
2019-05-03T20:24:58.286Z,8.08
2019-05-03T20:27:24.520Z,8.20
2019-05-03T20:29:50.350Z,7.79
2019-05-03T20:32:16.222Z,7.79
2019-05-03T20:34:42.090Z,7.61
2019-05-03T20:37:08.074Z,7.48
2019-05-03T20:39:34.806Z,7.43
2019-05-03T20:42:00.924Z,7.32
2019-05-03T20:44:40.504Z,7.14
2019-05-03T20:47:17.418Z,6.92
2019-05-03T20:49:45.182Z,6.92
2019-05-03T20:52:11.143Z,6.91
2019-05-03T20:54:37.107Z,6.98
2019-05-03T20:57:05.042Z,7.09
2019-05-03T20:59:42.112Z,6.98
2019-05-03T21:01:58.557Z,7.01
2019-05-03T21:04:24.748Z,7.01
2019-05-03T21:06:50.903Z,6.88
2019-05-03T21:09:16.894Z,6.86
2019-05-03T21:11:44.718Z,7.05
2019-05-03T21:14:10.720Z,6.92
2019-05-03T21:16:41.231Z,6.92
2019-05-03T21:19:18.112Z,6.69
2019-05-03T21:21:48.647Z,6.70
2019-05-03T21:24:24.150Z,6.90
2019-05-03T21:26:50.069Z,6.90
2019-05-03T21:29:15.907Z,6.68
2019-05-03T21:31:41.766Z,6.58
2019-05-03T21:34:07.633Z,6.69
2019-05-03T21:36:34.879Z,6.63
2019-05-03T21:39:00.850Z,6.50
2019-05-03T21:41:26.682Z,6.50
2019-05-03T21:43:54.432Z,6.51
2019-05-03T21:46:25.602Z,6.18
2019-05-03T21:48:59.540Z,6.03
2019-05-03T21:51:25.377Z,6.03
2019-05-03T21:53:51.447Z,6.12
2019-05-03T21:56:17.301Z,6.14
2019-05-03T21:58:44.640Z,6.17
2019-05-03T22:01:12.721Z,5.79
2019-05-03T22:03:38.675Z,5.46
2019-05-03T22:06:05.527Z,5.46
2019-05-03T22:08:31.381Z,5.53
2019-05-03T22:10:57.406Z,5.67
2019-05-03T22:13:24.568Z,5.67
2019-05-03T22:15:52.441Z,5.70
2019-05-03T22:18:24.697Z,5.66
2019-05-03T22:20:55.374Z,5.63
2019-05-03T22:23:39.691Z,5.19
2019-05-03T22:26:05.936Z,4.95
2019-05-03T22:28:31.777Z,4.95
2019-05-03T22:30:57.642Z,5.34
2019-05-03T22:33:23.464Z,5.29
2019-05-03T22:35:49.418Z,5.43
2019-05-03T22:38:15.258Z,5.51
2019-05-03T22:40:41.196Z,5.54
2019-05-03T22:43:07.254Z,5.50
2019-05-03T22:45:34.838Z,5.34
2019-05-03T22:48:01.175Z,5.09
2019-05-03T22:50:27.021Z,5.09
2019-05-03T22:52:54.862Z,5.01
2019-05-03T22:55:20.727Z,5.26
2019-05-03T22:57:46.663Z,5.35
2019-05-03T23:00:14.656Z,5.48
2019-05-03T23:02:40.764Z,5.55
2019-05-03T23:05:06.909Z,5.55
2019-05-03T23:07:35.527Z,4.82
2019-05-03T23:10:00.619Z,4.77
2019-05-03T23:12:26.556Z,4.77
2019-05-03T23:14:52.390Z,4.80
2019-05-03T23:17:18.358Z,5.10
2019-05-03T23:19:46.295Z,5.17
2019-05-03T23:22:17.026Z,5.11
2019-05-03T23:24:42.874Z,5.34
2019-05-03T23:27:08.704Z,5.13
2019-05-03T23:29:35.033Z,4.90
2019-05-03T23:32:00.890Z,4.77
2019-05-03T23:34:26.829Z,4.91
2019-05-03T23:36:54.679Z,4.98
2019-05-03T23:39:20.619Z,5.07
2019-05-03T23:41:46.458Z,5.18
2019-05-03T23:44:12.283Z,5.29
2019-05-03T23:46:40.133Z,5.37
2019-05-03T23:49:05.947Z,5.20
2019-05-03T23:51:51.243Z,5.15
2019-05-03T23:54:17.286Z,5.26
2019-05-03T23:56:45.656Z,5.14
2019-05-03T23:59:10.994Z,5.20
